sensor_id;sensor_type;location;lat;lon;timestamp;P1;durP1;ratioP1;P2;durP2;ratioP2
79543;SDS011;68994;47.176;7.534;2023-07-09T00:00:53;7.38;;;4.40;;
79543;SDS011;68994;47.176;7.534;2023-07-09T00:03:19;8.57;;;5.30;;
79543;SDS011;68994;47.176;7.534;2023-07-09T00:05:47;9.85;;;5.03;;
79543;SDS011;68994;47.176;7.534;2023-07-09T00:08:18;7.20;;;4.72;;
79543;SDS011;68994;47.176;7.534;2023-07-09T00:10:51;6.25;;;4.65;;
79543;SDS011;68994;47.176;7.534;2023-07-09T00:13:18;8.85;;;5.15;;
79543;SDS011;68994;47.176;7.534;2023-07-09T00:15:44;8.10;;;4.40;;
79543;SDS011;68994;47.176;7.534;2023-07-09T00:18:12;8.02;;;5.22;;
79543;SDS011;68994;47.176;7.534;2023-07-09T00:20:39;8.70;;;5.07;;
79543;SDS011;68994;47.176;7.534;2023-07-09T00:23:06;7.20;;;5.20;;
79543;SDS011;68994;47.176;7.534;2023-07-09T00:25:34;9.38;;;4.65;;
79543;SDS011;68994;47.176;7.534;2023-07-09T00:28:01;11.10;;;4.85;;
79543;SDS011;68994;47.176;7.534;2023-07-09T00:30:27;7.10;;;4.45;;
79543;SDS011;68994;47.176;7.534;2023-07-09T00:32:54;8.23;;;4.68;;
79543;SDS011;68994;47.176;7.534;2023-07-09T00:35:22;6.78;;;5.32;;
79543;SDS011;68994;47.176;7.534;2023-07-09T00:37:50;7.60;;;5.47;;
79543;SDS011;68994;47.176;7.534;2023-07-09T00:40:18;8.00;;;5.13;;
79543;SDS011;68994;47.176;7.534;2023-07-09T00:42:47;6.80;;;4.90;;
79543;SDS011;68994;47.176;7.534;2023-07-09T00:45:18;7.07;;;4.10;;
79543;SDS011;68994;47.176;7.534;2023-07-09T00:47:48;6.78;;;4.60;;
79543;SDS011;68994;47.176;7.534;2023-07-09T00:50:24;10.75;;;5.65;;
79543;SDS011;68994;47.176;7.534;2023-07-09T00:52:59;7.88;;;4.85;;
79543;SDS011;68994;47.176;7.534;2023-07-09T00:55:32;8.82;;;5.20;;
79543;SDS011;68994;47.176;7.534;2023-07-09T00:58:06;7.65;;;4.40;;
79543;SDS011;68994;47.176;7.534;2023-07-09T01:00:37;8.52;;;4.97;;
79543;SDS011;68994;47.176;7.534;2023-07-09T01:03:11;7.05;;;4.70;;
79543;SDS011;68994;47.176;7.534;2023-07-09T01:05:45;8.20;;;4.68;;
79543;SDS011;68994;47.176;7.534;2023-07-09T01:08:17;7.28;;;5.22;;
79543;SDS011;68994;47.176;7.534;2023-07-09T01:10:45;7.05;;;4.68;;
79543;SDS011;68994;47.176;7.534;2023-07-09T01:13:12;11.20;;;4.90;;
79543;SDS011;68994;47.176;7.534;2023-07-09T01:15:39;7.78;;;5.50;;
79543;SDS011;68994;47.176;7.534;2023-07-09T01:18:06;9.05;;;4.97;;
79543;SDS011;68994;47.176;7.534;2023-07-09T01:20:33;9.20;;;5.20;;
79543;SDS011;68994;47.176;7.534;2023-07-09T01:23:01;8.13;;;5.25;;
79543;SDS011;68994;47.176;7.534;2023-07-09T01:25:28;6.82;;;4.75;;
79543;SDS011;68994;47.176;7.534;2023-07-09T01:27:55;7.68;;;4.93;;
79543;SDS011;68994;47.176;7.534;2023-07-09T01:30:23;6.38;;;4.82;;
79543;SDS011;68994;47.176;7.534;2023-07-09T01:32:55;6.28;;;4.50;;
79543;SDS011;68994;47.176;7.534;2023-07-09T01:35:23;7.28;;;4.40;;
79543;SDS011;68994;47.176;7.534;2023-07-09T01:37:51;9.02;;;4.97;;
79543;SDS011;68994;47.176;7.534;2023-07-09T01:40:20;7.43;;;5.03;;
79543;SDS011;68994;47.176;7.534;2023-07-09T01:42:49;8.90;;;4.60;;
79543;SDS011;68994;47.176;7.534;2023-07-09T01:45:15;9.02;;;4.80;;
79543;SDS011;68994;47.176;7.534;2023-07-09T01:47:43;6.30;;;4.70;;
79543;SDS011;68994;47.176;7.534;2023-07-09T01:52:37;9.80;;;6.07;;
79543;SDS011;68994;47.176;7.534;2023-07-09T01:55:06;6.75;;;4.22;;
79543;SDS011;68994;47.176;7.534;2023-07-09T01:57:36;7.47;;;4.55;;
79543;SDS011;68994;47.176;7.534;2023-07-09T02:00:06;8.35;;;5.13;;
79543;SDS011;68994;47.176;7.534;2023-07-09T02:02:35;8.50;;;4.93;;
79543;SDS011;68994;47.176;7.534;2023-07-09T02:05:04;6.10;;;4.93;;
79543;SDS011;68994;47.176;7.534;2023-07-09T02:07:31;7.07;;;5.10;;
79543;SDS011;68994;47.176;7.534;2023-07-09T02:09:58;11.15;;;5.50;;
79543;SDS011;68994;47.176;7.534;2023-07-09T02:12:25;7.07;;;4.45;;
79543;SDS011;68994;47.176;7.534;2023-07-09T02:14:52;7.35;;;4.88;;
79543;SDS011;68994;47.176;7.534;2023-07-09T02:17:19;7.78;;;5.07;;
79543;SDS011;68994;47.176;7.534;2023-07-09T02:19:46;8.02;;;5.10;;
79543;SDS011;68994;47.176;7.534;2023-07-09T02:22:12;6.68;;;4.78;;
79543;SDS011;68994;47.176;7.534;2023-07-09T02:24:39;7.35;;;4.93;;
79543;SDS011;68994;47.176;7.534;2023-07-09T02:27:07;10.32;;;4.72;;
79543;SDS011;68994;47.176;7.534;2023-07-09T02:29:36;7.97;;;4.55;;
79543;SDS011;68994;47.176;7.534;2023-07-09T02:32:05;7.90;;;5.15;;
79543;SDS011;68994;47.176;7.534;2023-07-09T02:34:32;10.45;;;5.65;;
79543;SDS011;68994;47.176;7.534;2023-07-09T02:37:00;7.93;;;4.47;;
79543;SDS011;68994;47.176;7.534;2023-07-09T02:39:27;8.23;;;4.55;;
79543;SDS011;68994;47.176;7.534;2023-07-09T02:41:53;7.13;;;4.32;;
79543;SDS011;68994;47.176;7.534;2023-07-09T02:44:20;7.30;;;4.80;;
79543;SDS011;68994;47.176;7.534;2023-07-09T02:46:47;7.65;;;4.47;;
79543;SDS011;68994;47.176;7.534;2023-07-09T02:49:15;7.35;;;4.25;;
79543;SDS011;68994;47.176;7.534;2023-07-09T02:51:42;6.45;;;4.40;;
79543;SDS011;68994;47.176;7.534;2023-07-09T02:54:08;6.53;;;4.50;;
79543;SDS011;68994;47.176;7.534;2023-07-09T02:56:35;9.10;;;5.55;;
79543;SDS011;68994;47.176;7.534;2023-07-09T02:59:02;8.55;;;4.85;;
79543;SDS011;68994;47.176;7.534;2023-07-09T03:01:29;7.65;;;4.57;;
79543;SDS011;68994;47.176;7.534;2023-07-09T03:03:57;8.57;;;5.00;;
79543;SDS011;68994;47.176;7.534;2023-07-09T03:06:26;7.25;;;5.00;;
79543;SDS011;68994;47.176;7.534;2023-07-09T03:08:53;8.48;;;4.90;;
79543;SDS011;68994;47.176;7.534;2023-07-09T03:11:20;7.50;;;5.30;;
79543;SDS011;68994;47.176;7.534;2023-07-09T03:13:47;8.27;;;4.95;;
79543;SDS011;68994;47.176;7.534;2023-07-09T03:16:15;7.07;;;4.95;;
79543;SDS011;68994;47.176;7.534;2023-07-09T03:18:44;8.73;;;5.25;;
79543;SDS011;68994;47.176;7.534;2023-07-09T03:21:11;8.20;;;5.05;;
79543;SDS011;68994;47.176;7.534;2023-07-09T03:23:38;9.23;;;6.00;;
79543;SDS011;68994;47.176;7.534;2023-07-09T03:26:05;9.82;;;5.03;;
79543;SDS011;68994;47.176;7.534;2023-07-09T03:28:32;7.55;;;4.68;;
79543;SDS011;68994;47.176;7.534;2023-07-09T03:30:59;9.07;;;5.15;;
79543;SDS011;68994;47.176;7.534;2023-07-09T03:33:25;8.20;;;5.70;;
79543;SDS011;68994;47.176;7.534;2023-07-09T03:35:52;7.68;;;5.07;;
79543;SDS011;68994;47.176;7.534;2023-07-09T03:38:19;6.97;;;4.93;;
79543;SDS011;68994;47.176;7.534;2023-07-09T03:40:50;7.00;;;5.38;;
79543;SDS011;68994;47.176;7.534;2023-07-09T03:43:17;8.13;;;4.45;;
79543;SDS011;68994;47.176;7.534;2023-07-09T03:45:44;10.35;;;5.55;;
79543;SDS011;68994;47.176;7.534;2023-07-09T03:48:12;9.50;;;5.20;;
79543;SDS011;68994;47.176;7.534;2023-07-09T03:53:06;6.57;;;5.00;;
79543;SDS011;68994;47.176;7.534;2023-07-09T03:55:32;9.10;;;4.68;;
79543;SDS011;68994;47.176;7.534;2023-07-09T03:58:00;6.70;;;4.53;;
79543;SDS011;68994;47.176;7.534;2023-07-09T04:00:28;8.80;;;5.18;;
79543;SDS011;68994;47.176;7.534;2023-07-09T04:02:55;6.90;;;4.93;;
79543;SDS011;68994;47.176;7.534;2023-07-09T04:05:22;7.88;;;5.07;;
79543;SDS011;68994;47.176;7.534;2023-07-09T04:07:49;8.48;;;4.78;;
79543;SDS011;68994;47.176;7.534;2023-07-09T04:10:16;7.53;;;5.43;;
79543;SDS011;68994;47.176;7.534;2023-07-09T04:12:43;8.07;;;4.93;;
79543;SDS011;68994;47.176;7.534;2023-07-09T04:15:12;6.63;;;4.35;;
79543;SDS011;68994;47.176;7.534;2023-07-09T04:17:39;9.38;;;5.03;;
79543;SDS011;68994;47.176;7.534;2023-07-09T04:20:06;8.80;;;5.05;;
79543;SDS011;68994;47.176;7.534;2023-07-09T04:22:34;8.48;;;5.13;;
79543;SDS011;68994;47.176;7.534;2023-07-09T04:25:01;7.55;;;4.95;;
79543;SDS011;68994;47.176;7.534;2023-07-09T04:27:29;6.60;;;4.75;;
79543;SDS011;68994;47.176;7.534;2023-07-09T04:29:56;8.75;;;5.07;;
79543;SDS011;68994;47.176;7.534;2023-07-09T04:32:24;6.55;;;4.60;;
79543;SDS011;68994;47.176;7.534;2023-07-09T04:34:51;8.77;;;5.10;;
79543;SDS011;68994;47.176;7.534;2023-07-09T04:37:18;8.40;;;5.65;;
79543;SDS011;68994;47.176;7.534;2023-07-09T04:39:45;7.57;;;4.80;;
79543;SDS011;68994;47.176;7.534;2023-07-09T04:42:13;6.93;;;4.38;;
79543;SDS011;68994;47.176;7.534;2023-07-09T04:44:41;7.82;;;4.93;;
79543;SDS011;68994;47.176;7.534;2023-07-09T04:47:08;7.55;;;4.85;;
79543;SDS011;68994;47.176;7.534;2023-07-09T04:49:38;8.90;;;5.43;;
79543;SDS011;68994;47.176;7.534;2023-07-09T04:52:05;9.57;;;5.85;;
79543;SDS011;68994;47.176;7.534;2023-07-09T04:54:32;7.50;;;4.95;;
79543;SDS011;68994;47.176;7.534;2023-07-09T04:56:59;8.73;;;5.00;;
79543;SDS011;68994;47.176;7.534;2023-07-09T04:59:27;8.48;;;5.93;;
79543;SDS011;68994;47.176;7.534;2023-07-09T05:01:53;8.90;;;5.00;;
79543;SDS011;68994;47.176;7.534;2023-07-09T05:04:20;7.65;;;5.47;;
79543;SDS011;68994;47.176;7.534;2023-07-09T05:06:48;12.43;;;4.93;;
79543;SDS011;68994;47.176;7.534;2023-07-09T05:09:14;9.20;;;5.18;;
79543;SDS011;68994;47.176;7.534;2023-07-09T05:11:41;7.38;;;4.68;;
79543;SDS011;68994;47.176;7.534;2023-07-09T05:14:07;7.88;;;4.95;;
79543;SDS011;68994;47.176;7.534;2023-07-09T05:16:34;10.13;;;5.10;;
79543;SDS011;68994;47.176;7.534;2023-07-09T05:19:01;8.38;;;4.93;;
79543;SDS011;68994;47.176;7.534;2023-07-09T05:21:27;9.65;;;4.82;;
79543;SDS011;68994;47.176;7.534;2023-07-09T05:23:55;6.30;;;4.80;;
79543;SDS011;68994;47.176;7.534;2023-07-09T05:26:22;9.40;;;4.55;;
79543;SDS011;68994;47.176;7.534;2023-07-09T05:28:48;9.00;;;4.72;;
79543;SDS011;68994;47.176;7.534;2023-07-09T05:31:15;10.40;;;5.10;;
79543;SDS011;68994;47.176;7.534;2023-07-09T05:33:41;10.00;;;4.90;;
79543;SDS011;68994;47.176;7.534;2023-07-09T05:36:08;7.38;;;5.25;;
79543;SDS011;68994;47.176;7.534;2023-07-09T05:38:39;9.45;;;4.60;;
79543;SDS011;68994;47.176;7.534;2023-07-09T05:41:07;9.13;;;5.15;;
79543;SDS011;68994;47.176;7.534;2023-07-09T05:43:33;7.47;;;4.70;;
79543;SDS011;68994;47.176;7.534;2023-07-09T05:46:00;7.72;;;4.53;;
79543;SDS011;68994;47.176;7.534;2023-07-09T05:48:27;7.75;;;4.78;;
79543;SDS011;68994;47.176;7.534;2023-07-09T05:50:54;7.07;;;4.45;;
79543;SDS011;68994;47.176;7.534;2023-07-09T05:53:20;8.35;;;5.00;;
79543;SDS011;68994;47.176;7.534;2023-07-09T05:55:47;9.98;;;4.90;;
79543;SDS011;68994;47.176;7.534;2023-07-09T05:58:15;9.02;;;4.75;;
79543;SDS011;68994;47.176;7.534;2023-07-09T06:00:42;6.38;;;4.30;;
79543;SDS011;68994;47.176;7.534;2023-07-09T06:03:08;8.32;;;4.82;;
79543;SDS011;68994;47.176;7.534;2023-07-09T06:05:35;8.55;;;5.13;;
79543;SDS011;68994;47.176;7.534;2023-07-09T06:08:02;8.07;;;5.00;;
79543;SDS011;68994;47.176;7.534;2023-07-09T06:10:30;9.40;;;4.90;;
79543;SDS011;68994;47.176;7.534;2023-07-09T06:12:57;7.45;;;4.35;;
79543;SDS011;68994;47.176;7.534;2023-07-09T06:15:25;9.70;;;5.35;;
79543;SDS011;68994;47.176;7.534;2023-07-09T06:17:52;10.55;;;5.43;;
79543;SDS011;68994;47.176;7.534;2023-07-09T06:20:18;8.10;;;4.50;;
79543;SDS011;68994;47.176;7.534;2023-07-09T06:22:45;6.78;;;3.95;;
79543;SDS011;68994;47.176;7.534;2023-07-09T06:25:12;7.15;;;4.90;;
79543;SDS011;68994;47.176;7.534;2023-07-09T06:27:38;7.30;;;5.07;;
79543;SDS011;68994;47.176;7.534;2023-07-09T06:30:05;9.02;;;5.15;;
79543;SDS011;68994;47.176;7.534;2023-07-09T06:32:34;7.93;;;4.85;;
79543;SDS011;68994;47.176;7.534;2023-07-09T06:35:01;11.45;;;5.10;;
79543;SDS011;68994;47.176;7.534;2023-07-09T06:37:28;7.72;;;4.82;;
79543;SDS011;68994;47.176;7.534;2023-07-09T06:39:54;11.30;;;4.80;;
79543;SDS011;68994;47.176;7.534;2023-07-09T06:42:21;10.13;;;5.38;;
79543;SDS011;68994;47.176;7.534;2023-07-09T06:44:47;8.77;;;5.30;;
79543;SDS011;68994;47.176;7.534;2023-07-09T06:47:14;8.55;;;5.50;;
79543;SDS011;68994;47.176;7.534;2023-07-09T06:49:42;8.32;;;4.72;;
79543;SDS011;68994;47.176;7.534;2023-07-09T06:52:09;7.93;;;5.05;;
79543;SDS011;68994;47.176;7.534;2023-07-09T06:54:35;7.90;;;5.30;;
79543;SDS011;68994;47.176;7.534;2023-07-09T06:57:02;7.05;;;4.90;;
79543;SDS011;68994;47.176;7.534;2023-07-09T06:59:29;10.40;;;5.30;;
79543;SDS011;68994;47.176;7.534;2023-07-09T07:01:56;10.85;;;5.18;;
79543;SDS011;68994;47.176;7.534;2023-07-09T07:04:22;7.03;;;4.68;;
79543;SDS011;68994;47.176;7.534;2023-07-09T07:06:53;9.52;;;4.97;;
79543;SDS011;68994;47.176;7.534;2023-07-09T07:09:22;9.65;;;5.22;;
79543;SDS011;68994;47.176;7.534;2023-07-09T07:11:48;8.00;;;5.13;;
79543;SDS011;68994;47.176;7.534;2023-07-09T07:14:15;10.95;;;5.10;;
79543;SDS011;68994;47.176;7.534;2023-07-09T07:16:42;8.38;;;4.97;;
79543;SDS011;68994;47.176;7.534;2023-07-09T07:19:09;10.57;;;5.22;;
79543;SDS011;68994;47.176;7.534;2023-07-09T07:21:35;8.68;;;5.18;;
79543;SDS011;68994;47.176;7.534;2023-07-09T07:24:04;8.38;;;4.80;;
79543;SDS011;68994;47.176;7.534;2023-07-09T07:26:31;9.85;;;4.90;;
79543;SDS011;68994;47.176;7.534;2023-07-09T07:28:58;7.25;;;4.90;;
79543;SDS011;68994;47.176;7.534;2023-07-09T07:31:24;8.20;;;4.70;;
79543;SDS011;68994;47.176;7.534;2023-07-09T07:33:51;8.38;;;4.90;;
79543;SDS011;68994;47.176;7.534;2023-07-09T07:36:18;8.95;;;4.50;;
79543;SDS011;68994;47.176;7.534;2023-07-09T07:38:44;8.52;;;5.10;;
79543;SDS011;68994;47.176;7.534;2023-07-09T07:41:12;8.82;;;5.28;;
79543;SDS011;68994;47.176;7.534;2023-07-09T07:43:39;10.52;;;5.53;;
79543;SDS011;68994;47.176;7.534;2023-07-09T07:46:06;7.00;;;4.60;;
79543;SDS011;68994;47.176;7.534;2023-07-09T07:50:59;7.28;;;4.78;;
79543;SDS011;68994;47.176;7.534;2023-07-09T07:53:27;11.25;;;4.95;;
79543;SDS011;68994;47.176;7.534;2023-07-09T07:55:55;7.82;;;5.55;;
79543;SDS011;68994;47.176;7.534;2023-07-09T07:58:23;8.07;;;4.88;;
79543;SDS011;68994;47.176;7.534;2023-07-09T08:00:54;8.45;;;5.03;;
79543;SDS011;68994;47.176;7.534;2023-07-09T08:03:21;5.93;;;4.38;;
79543;SDS011;68994;47.176;7.534;2023-07-09T08:05:48;7.72;;;5.40;;
79543;SDS011;68994;47.176;7.534;2023-07-09T08:08:15;10.18;;;5.07;;
79543;SDS011;68994;47.176;7.534;2023-07-09T08:10:42;8.80;;;5.30;;
79543;SDS011;68994;47.176;7.534;2023-07-09T08:13:09;9.48;;;5.20;;
79543;SDS011;68994;47.176;7.534;2023-07-09T08:15:37;6.97;;;4.43;;
79543;SDS011;68994;47.176;7.534;2023-07-09T08:18:03;8.73;;;4.95;;
79543;SDS011;68994;47.176;7.534;2023-07-09T08:20:30;10.82;;;5.38;;
79543;SDS011;68994;47.176;7.534;2023-07-09T08:22:58;7.65;;;4.70;;
79543;SDS011;68994;47.176;7.534;2023-07-09T08:25:24;8.85;;;5.32;;
79543;SDS011;68994;47.176;7.534;2023-07-09T08:27:51;9.75;;;4.78;;
79543;SDS011;68994;47.176;7.534;2023-07-09T08:30:18;8.38;;;4.95;;
79543;SDS011;68994;47.176;7.534;2023-07-09T08:32:46;9.68;;;4.90;;
79543;SDS011;68994;47.176;7.534;2023-07-09T08:35:12;10.77;;;6.03;;
79543;SDS011;68994;47.176;7.534;2023-07-09T08:40:08;8.60;;;4.90;;
79543;SDS011;68994;47.176;7.534;2023-07-09T08:42:39;9.20;;;5.20;;
79543;SDS011;68994;47.176;7.534;2023-07-09T08:45:12;7.57;;;5.00;;
79543;SDS011;68994;47.176;7.534;2023-07-09T08:47:52;9.02;;;5.28;;
79543;SDS011;68994;47.176;7.534;2023-07-09T08:50:29;9.60;;;5.53;;
79543;SDS011;68994;47.176;7.534;2023-07-09T08:53:02;7.90;;;5.35;;
79543;SDS011;68994;47.176;7.534;2023-07-09T08:55:30;11.57;;;5.60;;
79543;SDS011;68994;47.176;7.534;2023-07-09T08:58:08;13.07;;;6.10;;
79543;SDS011;68994;47.176;7.534;2023-07-09T09:00:40;7.00;;;4.70;;
79543;SDS011;68994;47.176;7.534;2023-07-09T09:03:14;8.82;;;5.15;;
79543;SDS011;68994;47.176;7.534;2023-07-09T09:05:53;10.52;;;4.93;;
79543;SDS011;68994;47.176;7.534;2023-07-09T09:08:26;11.18;;;5.32;;
79543;SDS011;68994;47.176;7.534;2023-07-09T09:11:00;6.63;;;4.53;;
79543;SDS011;68994;47.176;7.534;2023-07-09T09:13:36;7.53;;;5.00;;
79543;SDS011;68994;47.176;7.534;2023-07-09T09:16:06;8.40;;;5.20;;
79543;SDS011;68994;47.176;7.534;2023-07-09T09:18:42;9.15;;;4.72;;
79543;SDS011;68994;47.176;7.534;2023-07-09T09:21:13;8.07;;;4.97;;
79543;SDS011;68994;47.176;7.534;2023-07-09T09:23:45;8.85;;;4.40;;
79543;SDS011;68994;47.176;7.534;2023-07-09T09:26:16;11.15;;;4.60;;
79543;SDS011;68994;47.176;7.534;2023-07-09T09:28:47;9.18;;;5.53;;
79543;SDS011;68994;47.176;7.534;2023-07-09T09:31:14;7.82;;;4.70;;
79543;SDS011;68994;47.176;7.534;2023-07-09T09:33:46;7.15;;;4.85;;
79543;SDS011;68994;47.176;7.534;2023-07-09T09:36:15;6.25;;;4.70;;
79543;SDS011;68994;47.176;7.534;2023-07-09T09:38:43;7.35;;;4.30;;
79543;SDS011;68994;47.176;7.534;2023-07-09T09:41:12;7.90;;;4.57;;
79543;SDS011;68994;47.176;7.534;2023-07-09T09:43:42;7.00;;;4.75;;
79543;SDS011;68994;47.176;7.534;2023-07-09T09:46:09;7.97;;;4.27;;
79543;SDS011;68994;47.176;7.534;2023-07-09T09:48:46;8.45;;;4.60;;
79543;SDS011;68994;47.176;7.534;2023-07-09T09:51:13;5.93;;;4.53;;
79543;SDS011;68994;47.176;7.534;2023-07-09T09:53:41;8.15;;;4.53;;
79543;SDS011;68994;47.176;7.534;2023-07-09T09:56:15;9.65;;;4.93;;
79543;SDS011;68994;47.176;7.534;2023-07-09T09:58:44;6.03;;;4.40;;
79543;SDS011;68994;47.176;7.534;2023-07-09T10:01:11;7.93;;;4.45;;
79543;SDS011;68994;47.176;7.534;2023-07-09T10:03:41;7.78;;;4.55;;
79543;SDS011;68994;47.176;7.534;2023-07-09T10:06:12;6.55;;;4.40;;
79543;SDS011;68994;47.176;7.534;2023-07-09T10:08:45;7.30;;;4.30;;
79543;SDS011;68994;47.176;7.534;2023-07-09T10:11:21;8.05;;;4.40;;
79543;SDS011;68994;47.176;7.534;2023-07-09T10:13:54;5.75;;;3.80;;
79543;SDS011;68994;47.176;7.534;2023-07-09T10:16:25;4.82;;;3.97;;
79543;SDS011;68994;47.176;7.534;2023-07-09T10:19:03;5.53;;;4.43;;
79543;SDS011;68994;47.176;7.534;2023-07-09T10:21:41;7.20;;;4.03;;
79543;SDS011;68994;47.176;7.534;2023-07-09T10:24:26;7.50;;;4.57;;
79543;SDS011;68994;47.176;7.534;2023-07-09T10:27:07;6.60;;;4.10;;
79543;SDS011;68994;47.176;7.534;2023-07-09T10:32:44;6.47;;;4.20;;
79543;SDS011;68994;47.176;7.534;2023-07-09T10:35:20;6.60;;;3.90;;
79543;SDS011;68994;47.176;7.534;2023-07-09T10:37:59;7.35;;;3.90;;
79543;SDS011;68994;47.176;7.534;2023-07-09T10:40:36;9.88;;;4.15;;
79543;SDS011;68994;47.176;7.534;2023-07-09T10:43:06;4.80;;;3.75;;
79543;SDS011;68994;47.176;7.534;2023-07-09T10:45:39;8.10;;;4.03;;
79543;SDS011;68994;47.176;7.534;2023-07-09T10:48:10;5.65;;;3.85;;
79543;SDS011;68994;47.176;7.534;2023-07-09T10:50:41;7.53;;;4.22;;
79543;SDS011;68994;47.176;7.534;2023-07-09T10:53:12;5.97;;;4.20;;
79543;SDS011;68994;47.176;7.534;2023-07-09T10:55:47;6.25;;;3.80;;
79543;SDS011;68994;47.176;7.534;2023-07-09T10:58:22;9.90;;;4.32;;
79543;SDS011;68994;47.176;7.534;2023-07-09T11:00:57;6.93;;;3.75;;
79543;SDS011;68994;47.176;7.534;2023-07-09T11:03:27;7.45;;;4.03;;
79543;SDS011;68994;47.176;7.534;2023-07-09T11:06:03;9.82;;;4.30;;
79543;SDS011;68994;47.176;7.534;2023-07-09T11:08:41;6.85;;;4.20;;
79543;SDS011;68994;47.176;7.534;2023-07-09T11:11:09;6.40;;;3.80;;
79543;SDS011;68994;47.176;7.534;2023-07-09T11:13:44;5.25;;;3.45;;
79543;SDS011;68994;47.176;7.534;2023-07-09T11:16:15;5.90;;;3.72;;
79543;SDS011;68994;47.176;7.534;2023-07-09T11:18:52;8.68;;;4.43;;
79543;SDS011;68994;47.176;7.534;2023-07-09T11:21:21;6.22;;;4.40;;
79543;SDS011;68994;47.176;7.534;2023-07-09T11:23:50;6.10;;;4.13;;
79543;SDS011;68994;47.176;7.534;2023-07-09T11:26:23;6.45;;;4.30;;
79543;SDS011;68994;47.176;7.534;2023-07-09T11:28:51;6.82;;;4.38;;
79543;SDS011;68994;47.176;7.534;2023-07-09T11:31:23;9.23;;;4.07;;
79543;SDS011;68994;47.176;7.534;2023-07-09T11:34:00;9.32;;;4.60;;
79543;SDS011;68994;47.176;7.534;2023-07-09T11:36:29;8.35;;;4.05;;
79543;SDS011;68994;47.176;7.534;2023-07-09T11:38:59;8.77;;;4.13;;
79543;SDS011;68994;47.176;7.534;2023-07-09T11:41:38;6.30;;;4.05;;
79543;SDS011;68994;47.176;7.534;2023-07-09T11:44:14;6.97;;;3.88;;
79543;SDS011;68994;47.176;7.534;2023-07-09T11:46:50;6.30;;;4.10;;
79543;SDS011;68994;47.176;7.534;2023-07-09T11:49:24;7.15;;;4.15;;
79543;SDS011;68994;47.176;7.534;2023-07-09T11:51:54;5.30;;;3.72;;
79543;SDS011;68994;47.176;7.534;2023-07-09T11:54:28;7.75;;;3.78;;
79543;SDS011;68994;47.176;7.534;2023-07-09T11:57:00;6.55;;;3.55;;
79543;SDS011;68994;47.176;7.534;2023-07-09T11:59:28;8.85;;;4.20;;
79543;SDS011;68994;47.176;7.534;2023-07-09T12:01:55;8.75;;;4.07;;
79543;SDS011;68994;47.176;7.534;2023-07-09T12:04:27;6.28;;;4.05;;
79543;SDS011;68994;47.176;7.534;2023-07-09T12:07:00;6.40;;;3.50;;
79543;SDS011;68994;47.176;7.534;2023-07-09T12:09:31;7.47;;;3.88;;
79543;SDS011;68994;47.176;7.534;2023-07-09T12:12:03;8.85;;;4.18;;
79543;SDS011;68994;47.176;7.534;2023-07-09T12:14:30;6.80;;;4.35;;
79543;SDS011;68994;47.176;7.534;2023-07-09T12:19:24;7.95;;;3.78;;
79543;SDS011;68994;47.176;7.534;2023-07-09T12:21:56;6.93;;;3.85;;
79543;SDS011;68994;47.176;7.534;2023-07-09T12:24:24;8.30;;;4.13;;
79543;SDS011;68994;47.176;7.534;2023-07-09T12:26:58;7.78;;;3.30;;
79543;SDS011;68994;47.176;7.534;2023-07-09T12:29:26;7.03;;;3.80;;
79543;SDS011;68994;47.176;7.534;2023-07-09T12:31:53;9.15;;;3.92;;
79543;SDS011;68994;47.176;7.534;2023-07-09T12:34:22;5.97;;;3.47;;
79543;SDS011;68994;47.176;7.534;2023-07-09T12:36:50;6.68;;;3.45;;
79543;SDS011;68994;47.176;7.534;2023-07-09T12:39:21;9.23;;;3.58;;
79543;SDS011;68994;47.176;7.534;2023-07-09T12:41:51;7.82;;;3.65;;
79543;SDS011;68994;47.176;7.534;2023-07-09T12:44:23;5.97;;;3.70;;
79543;SDS011;68994;47.176;7.534;2023-07-09T12:46:51;8.73;;;4.13;;
79543;SDS011;68994;47.176;7.534;2023-07-09T12:49:23;8.77;;;4.00;;
79543;SDS011;68994;47.176;7.534;2023-07-09T12:51:51;5.60;;;3.65;;
79543;SDS011;68994;47.176;7.534;2023-07-09T12:54:20;9.68;;;3.85;;
79543;SDS011;68994;47.176;7.534;2023-07-09T12:56:50;9.93;;;4.15;;
79543;SDS011;68994;47.176;7.534;2023-07-09T12:59:19;5.80;;;3.50;;
79543;SDS011;68994;47.176;7.534;2023-07-09T13:01:48;8.15;;;3.83;;
79543;SDS011;68994;47.176;7.534;2023-07-09T13:04:16;7.75;;;3.63;;
79543;SDS011;68994;47.176;7.534;2023-07-09T13:09:11;5.95;;;3.75;;
79543;SDS011;68994;47.176;7.534;2023-07-09T13:11:44;6.90;;;3.88;;
79543;SDS011;68994;47.176;7.534;2023-07-09T13:14:16;9.13;;;4.22;;
79543;SDS011;68994;47.176;7.534;2023-07-09T13:16:46;5.85;;;3.75;;
79543;SDS011;68994;47.176;7.534;2023-07-09T13:19:13;5.10;;;3.60;;
79543;SDS011;68994;47.176;7.534;2023-07-09T13:21:40;7.32;;;3.63;;
79543;SDS011;68994;47.176;7.534;2023-07-09T13:24:12;11.38;;;4.15;;
79543;SDS011;68994;47.176;7.534;2023-07-09T13:26:42;7.97;;;4.28;;
79543;SDS011;68994;47.176;7.534;2023-07-09T13:29:12;7.10;;;4.22;;
79543;SDS011;68994;47.176;7.534;2023-07-09T13:31:40;6.43;;;3.83;;
79543;SDS011;68994;47.176;7.534;2023-07-09T13:34:13;6.43;;;3.72;;
79543;SDS011;68994;47.176;7.534;2023-07-09T13:36:44;7.97;;;4.28;;
79543;SDS011;68994;47.176;7.534;2023-07-09T13:39:11;6.93;;;3.95;;
79543;SDS011;68994;47.176;7.534;2023-07-09T13:41:39;7.85;;;3.60;;
79543;SDS011;68994;47.176;7.534;2023-07-09T13:46:36;6.45;;;3.70;;
79543;SDS011;68994;47.176;7.534;2023-07-09T13:49:04;7.45;;;3.83;;
79543;SDS011;68994;47.176;7.534;2023-07-09T13:51:35;5.95;;;3.42;;
79543;SDS011;68994;47.176;7.534;2023-07-09T13:54:01;6.85;;;3.60;;
79543;SDS011;68994;47.176;7.534;2023-07-09T13:56:35;7.70;;;3.78;;
79543;SDS011;68994;47.176;7.534;2023-07-09T13:59:01;8.93;;;3.95;;
79543;SDS011;68994;47.176;7.534;2023-07-09T14:03:55;6.50;;;3.53;;
79543;SDS011;68994;47.176;7.534;2023-07-09T14:06:24;8.43;;;3.58;;
79543;SDS011;68994;47.176;7.534;2023-07-09T14:08:52;6.35;;;3.25;;
79543;SDS011;68994;47.176;7.534;2023-07-09T14:11:18;6.53;;;3.65;;
79543;SDS011;68994;47.176;7.534;2023-07-09T14:13:46;6.90;;;3.60;;
79543;SDS011;68994;47.176;7.534;2023-07-09T14:16:13;7.78;;;3.55;;
79543;SDS011;68994;47.176;7.534;2023-07-09T14:18:41;7.63;;;3.88;;
79543;SDS011;68994;47.176;7.534;2023-07-09T14:21:09;6.38;;;4.00;;
79543;SDS011;68994;47.176;7.534;2023-07-09T14:23:38;6.10;;;3.78;;
79543;SDS011;68994;47.176;7.534;2023-07-09T14:26:07;6.25;;;3.45;;
79543;SDS011;68994;47.176;7.534;2023-07-09T14:28:35;7.68;;;3.83;;
79543;SDS011;68994;47.176;7.534;2023-07-09T14:31:04;7.28;;;4.00;;
79543;SDS011;68994;47.176;7.534;2023-07-09T14:33:38;6.07;;;3.35;;
79543;SDS011;68994;47.176;7.534;2023-07-09T14:36:05;6.32;;;3.70;;
79543;SDS011;68994;47.176;7.534;2023-07-09T14:38:32;7.28;;;3.55;;
79543;SDS011;68994;47.176;7.534;2023-07-09T14:40:59;6.47;;;3.70;;
79543;SDS011;68994;47.176;7.534;2023-07-09T14:43:32;7.13;;;4.03;;
79543;SDS011;68994;47.176;7.534;2023-07-09T14:45:58;8.93;;;3.85;;
79543;SDS011;68994;47.176;7.534;2023-07-09T14:48:25;8.80;;;5.90;;
79543;SDS011;68994;47.176;7.534;2023-07-09T14:50:51;5.88;;;3.72;;
79543;SDS011;68994;47.176;7.534;2023-07-09T14:53:20;6.07;;;4.05;;
79543;SDS011;68994;47.176;7.534;2023-07-09T14:55:51;6.50;;;4.00;;
79543;SDS011;68994;47.176;7.534;2023-07-09T14:58:19;9.10;;;3.50;;
79543;SDS011;68994;47.176;7.534;2023-07-09T15:00:48;7.15;;;4.00;;
79543;SDS011;68994;47.176;7.534;2023-07-09T15:03:18;5.78;;;2.88;;
79543;SDS011;68994;47.176;7.534;2023-07-09T15:05:46;8.25;;;3.58;;
79543;SDS011;68994;47.176;7.534;2023-07-09T15:08:13;6.07;;;3.63;;
79543;SDS011;68994;47.176;7.534;2023-07-09T15:10:41;5.97;;;3.40;;
79543;SDS011;68994;47.176;7.534;2023-07-09T15:13:16;8.90;;;3.55;;
79543;SDS011;68994;47.176;7.534;2023-07-09T15:15:44;7.75;;;4.80;;
79543;SDS011;68994;47.176;7.534;2023-07-09T15:18:12;8.00;;;4.40;;